Time;durP1;ratioP1;P1;durP2;ratioP2;P2;SDS_P1;SDS_P2;PMS_P1;PMS_P2;Temp;Humidity;BMP_temperature;BMP_pressure;BME280_temperature;BME280_humidity;BME280_pressure;Samples;Min_cycle;Max_cycle;Signal;HPM_P1;HPM_P2
2022/12/22 03:26:23;;;;;;;52.88;10.90;;;;;;;8.29;100.00;100031.66;5043268;28;20498;-72
2022/12/22 03:28:48;;;;;;;42.88;8.82;;;;;;;8.26;100.00;100029.22;5040666;28;20052;-72
2022/12/22 03:31:14;;;;;;;54.65;9.02;;;;;;;8.26;100.00;100031.88;5046313;28;20025;-72
2022/12/22 03:33:39;;;;;;;34.95;11.48;;;;;;;8.26;100.00;100026.53;5043810;28;20112;-72
2022/12/22 03:36:05;;;;;;;36.30;9.25;;;;;;;8.27;100.00;100020.19;5039035;28;20389;-72
2022/12/22 03:38:31;;;;;;;63.15;11.77;;;;;;;8.25;100.00;100016.78;5049033;28;20025;-72
2022/12/22 03:40:56;;;;;;;44.83;9.80;;;;;;;8.20;100.00;100019.81;5037987;28;20056;-72
2022/12/22 03:46:31;;;;;;;29.30;7.47;;;;;;;8.18;100.00;100013.72;5037235;28;20044;-72
2022/12/22 03:49:10;;;;;;;20.88;6.10;;;;;;;8.18;100.00;100003.00;5043376;28;20056;-72
2022/12/22 03:51:45;;;;;;;69.13;10.48;;;;;;;8.16;100.00;100009.47;5041063;28;20084;-72
2022/12/22 03:54:12;;;;;;;54.42;9.23;;;;;;;8.13;100.00;100015.91;5049784;28;20051;-72
2022/12/22 03:56:39;;;;;;;27.38;6.53;;;;;;;8.10;100.00;100008.13;5034985;28;20021;-72
2022/12/22 03:59:05;;;;;;;49.03;8.23;;;;;;;8.05;100.00;100005.78;5044171;28;20488;-72
2022/12/22 04:01:32;;;;;;;12.88;4.43;;;;;;;8.09;100.00;100005.56;5053464;28;20028;-72
2022/12/22 04:03:57;;;;;;;20.50;6.32;;;;;;;8.08;100.00;99993.13;5044719;28;20025;-72
2022/12/22 04:06:22;;;;;;;18.90;5.38;;;;;;;8.07;100.00;99994.97;5035800;28;20037;-72
2022/12/22 04:08:48;;;;;;;21.33;6.60;;;;;;;8.05;100.00;99995.09;5041124;28;20048;-72
2022/12/22 04:13:59;;;;;;;14.75;5.85;;;;;;;7.99;100.00;100000.03;5040265;28;20412;-72
2022/12/22 04:16:24;;;;;;;14.55;5.32;;;;;;;7.98;100.00;99998.34;5046948;28;20029;-72
2022/12/22 04:18:50;;;;;;;16.00;5.47;;;;;;;7.98;100.00;100001.00;5035329;28;20025;-72
2022/12/22 04:21:15;;;;;;;42.88;10.20;;;;;;;7.94;100.00;99997.72;5040262;28;20054;-72
2022/12/22 04:23:41;;;;;;;16.23;5.53;;;;;;;7.95;100.00;99988.75;5035851;28;20048;-72
2022/12/22 04:26:06;;;;;;;15.35;5.50;;;;;;;7.97;100.00;99992.13;5037794;28;20041;-72
2022/12/22 04:28:31;;;;;;;14.98;5.53;;;;;;;7.95;100.00;99991.41;5035609;28;20502;-72
2022/12/22 04:30:57;;;;;;;18.98;7.70;;;;;;;7.99;100.00;100002.72;5041246;28;20029;-72
2022/12/22 04:33:22;;;;;;;18.17;6.70;;;;;;;8.03;100.00;100006.88;5044909;28;20026;-72
2022/12/22 04:35:48;;;;;;;19.42;7.50;;;;;;;8.02;100.00;100006.03;5036082;28;20029;-72
2022/12/22 04:38:13;;;;;;;23.13;9.85;;;;;;;8.03;100.00;100001.53;5044459;28;20454;-72
2022/12/22 04:40:39;;;;;;;23.15;11.10;;;;;;;8.05;100.00;100012.94;5039895;28;20029;-72
2022/12/22 04:43:05;;;;;;;27.80;11.63;;;;;;;8.03;100.00;100002.38;5054580;28;20025;-72
2022/12/22 04:45:30;;;;;;;23.58;10.63;;;;;;;8.05;100.00;100016.50;5037709;28;20120;-72
2022/12/22 04:47:55;;;;;;;19.02;6.88;;;;;;;8.08;100.00;100010.03;5040032;28;20481;-72
2022/12/22 04:50:20;;;;;;;20.50;6.50;;;;;;;8.08;100.00;100006.53;5033410;28;20029;-72
2022/12/22 04:52:46;;;;;;;25.35;5.95;;;;;;;8.10;100.00;100012.63;5044126;28;20029;-72
2022/12/22 04:55:11;;;;;;;26.67;6.38;;;;;;;8.10;100.00;100017.97;5038978;28;20457;-72
2022/12/22 04:57:36;;;;;;;19.67;6.07;;;;;;;8.08;100.00;100003.84;5035488;28;20037;-72
2022/12/22 05:00:03;;;;;;;27.45;6.93;;;;;;;8.04;100.00;100001.41;5037379;28;20385;-72
2022/12/22 05:02:28;;;;;;;20.52;6.10;;;;;;;8.02;100.00;100000.69;5049118;28;20108;-72
2022/12/22 05:04:54;;;;;;;35.75;7.05;;;;;;;8.00;100.00;99996.41;5033295;28;20671;-72
2022/12/22 05:07:19;;;;;;;17.00;6.15;;;;;;;8.03;100.00;99996.16;5041217;28;20025;-72
2022/12/22 05:09:45;;;;;;;17.23;5.15;;;;;;;8.02;100.00;99998.00;5037120;28;20026;-72
2022/12/22 05:14:54;;;;;;;19.42;6.35;;;;;;;7.99;100.00;100006.25;5037815;28;20040;-72
2022/12/22 05:17:20;;;;;;;22.45;8.15;;;;;;;7.96;100.00;100001.13;5044605;28;20021;-72
2022/12/22 05:19:45;;;;;;;18.92;7.18;;;;;;;7.93;100.00;100004.03;5038111;28;20115;-72
2022/12/22 05:22:10;;;;;;;75.75;11.82;;;;;;;7.97;100.00;100012.69;5050872;28;20037;-72
2022/12/22 05:24:35;;;;;;;50.97;9.18;;;;;;;7.96;100.00;100017.19;5047993;28;20025;-72
2022/12/22 05:27:01;;;;;;;52.30;8.50;;;;;;;7.93;100.00;100017.41;5040687;28;20039;-72
2022/12/22 05:29:26;;;;;;;51.22;7.07;;;;;;;7.93;100.00;100014.75;5042522;28;20029;-72
2022/12/22 05:31:51;;;;;;;27.55;6.47;;;;;;;7.92;100.00;100018.41;5042251;28;20110;-72
2022/12/22 05:34:16;;;;;;;28.90;6.35;;;;;;;7.92;100.00;100025.56;5051499;28;20126;-72
2022/12/22 05:36:42;;;;;;;35.25;6.53;;;;;;;7.92;100.00;100026.44;5054523;28;20029;-72
2022/12/22 05:39:07;;;;;;;27.02;6.07;;;;;;;7.91;100.00;100019.38;5034620;28;20022;-72
2022/12/22 05:41:32;;;;;;;16.50;5.70;;;;;;;7.90;100.00;100028.34;5039238;28;20052;-72
2022/12/22 05:43:58;;;;;;;34.65;8.00;;;;;;;7.92;100.00;100029.09;5042762;28;20040;-72
2022/12/22 05:46:23;;;;;;;35.17;6.93;;;;;;;7.91;100.00;100029.22;5039425;28;20022;-72
2022/12/22 05:48:48;;;;;;;32.22;7.45;;;;;;;7.92;100.00;100033.59;5036640;28;20400;-72
2022/12/22 05:51:14;;;;;;;28.08;7.93;;;;;;;7.91;100.00;100027.41;5047725;28;20140;-72
2022/12/22 05:53:40;;;;;;;20.63;6.68;;;;;;;7.92;100.00;100037.13;5048365;28;20017;-72
2022/12/22 05:56:06;;;;;;;23.48;6.72;;;;;;;7.94;100.00;100043.22;5051558;28;20029;-72
2022/12/22 05:58:32;;;;;;;23.25;6.82;;;;;;;7.97;100.00;100055.50;5037399;28;20029;-72
2022/12/22 06:00:58;;;;;;;24.95;7.70;;;;;;;7.99;100.00;100070.47;5044604;28;20033;-72
2022/12/22 06:03:25;;;;;;;49.40;9.00;;;;;;;7.99;100.00;100074.97;5034312;28;20030;-72
2022/12/22 06:05:51;;;;;;;40.00;8.40;;;;;;;8.00;100.00;100079.38;5051762;28;20044;-72
2022/12/22 06:08:16;;;;;;;44.03;8.95;;;;;;;7.99;100.00;100089.19;5040794;28;20413;-72
2022/12/22 06:10:41;;;;;;;32.20;8.95;;;;;;;8.01;100.00;100081.94;5042964;28;20423;-72
2022/12/22 06:13:06;;;;;;;32.85;8.80;;;;;;;8.00;100.00;100088.22;5037074;28;20107;-72
2022/12/22 06:15:32;;;;;;;32.17;9.85;;;;;;;8.03;100.00;100088.00;5041722;28;20403;-72
2022/12/22 06:17:57;;;;;;;22.23;9.77;;;;;;;8.05;100.00;100085.22;5041845;28;20040;-72
2022/12/22 06:20:22;;;;;;;22.80;9.48;;;;;;;8.05;100.00;100096.78;5033780;28;20025;-72
2022/12/22 06:22:48;;;;;;;22.98;10.43;;;;;;;8.08;100.00;100100.19;5040251;28;20385;-72
2022/12/22 06:25:13;;;;;;;21.35;9.57;;;;;;;8.07;100.00;100104.69;5037364;28;20029;-72
2022/12/22 06:27:38;;;;;;;24.90;11.50;;;;;;;8.10;100.00;100111.66;5047146;28;20459;-72
2022/12/22 06:30:04;;;;;;;23.95;10.75;;;;;;;8.09;100.00;100116.13;5049325;28;20559;-72
2022/12/22 06:32:30;;;;;;;24.88;11.90;;;;;;;8.11;100.00;100121.38;5052479;28;20024;-72
2022/12/22 06:34:55;;;;;;;25.52;13.05;;;;;;;8.12;100.00;100120.41;5053398;28;20424;-72
2022/12/22 06:37:20;;;;;;;28.02;14.52;;;;;;;8.11;100.00;100127.59;5052247;28;20028;-72
2022/12/22 06:39:46;;;;;;;32.53;16.58;;;;;;;8.15;100.00;100137.06;5051385;28;20037;-72
2022/12/22 06:44:55;;;;;;;33.72;19.08;;;;;;;8.15;100.00;100133.56;5047643;28;20071;-72
2022/12/22 06:47:20;;;;;;;36.10;17.85;;;;;;;8.15;100.00;100139.75;5053678;28;20017;-72
2022/12/22 06:49:45;;;;;;;33.55;17.90;;;;;;;8.16;100.00;100145.97;5053099;28;20040;-72
2022/12/22 06:52:11;;;;;;;35.28;18.27;;;;;;;8.18;100.00;100144.03;5052614;28;20086;-72
2022/12/22 06:54:36;;;;;;;31.88;18.52;;;;;;;8.17;100.00;100153.03;5052656;28;20021;-72
2022/12/22 06:57:01;;;;;;;34.03;18.27;;;;;;;8.18;100.00;100160.94;5041926;28;20037;-72
2022/12/22 06:59:27;;;;;;;37.33;20.00;;;;;;;8.19;100.00;100161.81;5047959;28;20024;-72
2022/12/22 07:01:52;;;;;;;33.55;19.80;;;;;;;8.19;100.00;100170.69;5043265;28;20037;-72
2022/12/22 07:04:19;;;;;;;33.00;17.77;;;;;;;8.19;100.00;100161.81;5033294;28;20026;-72
2022/12/22 07:06:46;;;;;;;39.97;20.60;;;;;;;8.18;100.00;100177.00;5033632;28;20063;-72
2022/12/22 07:09:11;;;;;;;32.47;16.92;;;;;;;8.19;100.00;100191.25;5038098;28;20033;-72
2022/12/22 07:11:36;;;;;;;33.17;18.63;;;;;;;8.17;100.00;100194.03;5049551;28;20021;-72
2022/12/22 07:14:02;;;;;;;33.17;17.00;;;;;;;8.15;100.00;100195.97;5033732;28;20036;-72
2022/12/22 07:16:27;;;;;;;34.83;18.25;;;;;;;8.15;100.00;100209.34;5034659;28;20441;-72
2022/12/22 07:18:52;;;;;;;34.33;18.77;;;;;;;8.16;100.00;100211.06;5038153;28;20047;-72
2022/12/22 07:21:17;;;;;;;34.38;19.33;;;;;;;8.17;100.00;100198.53;5045840;28;20025;-72
2022/12/22 07:23:43;;;;;;;33.20;18.77;;;;;;;8.15;100.00;100203.16;5044455;28;20123;-71
2022/12/22 07:26:09;;;;;;;32.20;18.40;;;;;;;8.17;100.00;100209.22;5050842;28;20037;-72
2022/12/22 07:28:36;;;;;;;35.25;20.80;;;;;;;8.12;100.00;100206.91;5056606;28;20083;-72
2022/12/22 07:31:04;;;;;;;34.10;20.13;;;;;;;8.11;100.00;100201.66;5047444;28;20049;-72
2022/12/22 07:33:29;;;;;;;36.75;20.58;;;;;;;8.08;100.00;100202.72;5044018;28;20029;-71
2022/12/22 07:36:08;;;;;;;39.63;18.67;;;;;;;8.06;100.00;100204.69;5048447;28;20505;-72
2022/12/22 07:38:35;;;;;;;35.35;18.42;;;;;;;8.02;100.00;100206.75;5040471;28;20029;-73
2022/12/22 07:41:01;;;;;;;36.17;19.60;;;;;;;8.01;100.00;100213.03;5063989;28;20403;-72
2022/12/22 07:43:26;;;;;;;34.35;20.25;;;;;;;8.02;100.00;100213.88;5044453;28;20021;-72
2022/12/22 07:45:52;;;;;;;36.67;20.40;;;;;;;8.00;100.00;100219.34;5048479;28;20040;-72
2022/12/22 07:51:04;;;;;;;37.47;20.20;;;;;;;7.99;100.00;100239.03;5035615;28;20072;-72
2022/12/22 07:53:29;;;;;;;32.95;20.27;;;;;;;8.00;100.00;100243.44;5046752;28;20055;-72
2022/12/22 07:55:54;;;;;;;40.03;19.65;;;;;;;7.99;100.00;100247.06;5038415;28;20021;-72
2022/12/22 07:58:20;;;;;;;39.08;24.25;;;;;;;7.99;100.00;100264.97;5033847;28;20032;-72
2022/12/22 08:00:45;;;;;;;43.40;23.80;;;;;;;7.99;100.00;100273.84;5042649;28;20041;-72
2022/12/22 08:03:10;;;;;;;37.25;21.00;;;;;;;7.99;100.00;100281.00;5049574;28;20473;-72
2022/12/22 08:05:37;;;;;;;41.28;23.60;;;;;;;7.96;100.00;100294.63;5034480;28;20048;-72
2022/12/22 08:08:02;;;;;;;42.70;24.40;;;;;;;7.98;100.00;100298.03;5038450;28;20031;-72
2022/12/22 08:10:27;;;;;;;39.38;22.83;;;;;;;7.98;100.00;100304.25;5045420;28;20032;-72
2022/12/22 08:12:52;;;;;;;40.10;23.30;;;;;;;7.96;100.00;100314.19;5054144;28;20079;-72
2022/12/22 08:15:18;;;;;;;41.42;24.02;;;;;;;7.95;100.00;100299.13;5044564;28;20104;-72
2022/12/22 08:17:43;;;;;;;42.45;23.98;;;;;;;7.97;100.00;100307.88;5034084;28;20025;-72
2022/12/22 08:20:09;;;;;;;43.05;24.70;;;;;;;7.96;100.00;100308.84;5035294;28;20040;-72
2022/12/22 08:22:34;;;;;;;38.22;22.85;;;;;;;7.98;100.00;100314.97;5045852;28;20018;-72
2022/12/22 08:24:59;;;;;;;39.55;25.17;;;;;;;7.98;100.00;100314.09;5039421;28;20132;-71
2022/12/22 08:27:57;;;;;;;45.95;23.83;;;;;;;8.00;100.00;100313.00;5042504;28;20059;-73
2022/12/22 08:30:22;;;;;;;38.42;21.75;;;;;;;7.95;100.00;100315.19;5040620;28;20045;-72
2022/12/22 08:32:49;;;;;;;39.13;22.77;;;;;;;7.92;100.00;100326.09;5049243;28;20495;-71
2022/12/22 08:35:15;;;;;;;36.78;20.98;;;;;;;7.91;100.00;100334.25;5043563;28;20014;-73
2022/12/22 08:37:44;;;;;;;37.03;20.77;;;;;;;7.88;100.00;100336.16;5041439;28;20025;-73
2022/12/22 08:40:24;;;;;;;36.10;20.00;;;;;;;7.86;100.00;100351.47;5053716;28;20025;-68
2022/12/22 08:42:53;;;;;;;39.03;20.80;;;;;;;7.86;100.00;100369.31;5050857;28;20052;-74
2022/12/22 08:45:18;;;;;;;38.13;21.25;;;;;;;7.86;100.00;100377.34;5045731;28;20039;-72
2022/12/22 08:47:44;;;;;;;38.95;22.80;;;;;;;7.87;100.00;100379.91;5041341;28;20030;-72
2022/12/22 08:50:09;;;;;;;42.70;21.00;;;;;;;7.88;100.00;100389.66;5045054;28;20021;-72
2022/12/22 08:52:35;;;;;;;43.13;23.00;;;;;;;7.91;100.00;100399.31;5037946;28;20448;-73
2022/12/22 08:55:00;;;;;;;38.45;21.95;;;;;;;7.90;100.00;100405.59;5040192;28;20045;-74
2022/12/22 08:57:25;;;;;;;38.67;22.38;;;;;;;7.91;100.00;100401.97;5038886;28;20596;-73
2022/12/22 08:59:51;;;;;;;41.28;22.38;;;;;;;7.85;100.00;100389.88;5053055;28;20025;-71
2022/12/22 09:02:16;;;;;;;39.60;23.00;;;;;;;7.82;100.00;100400.78;5050681;28;20472;-74
2022/12/22 09:04:42;;;;;;;42.40;23.08;;;;;;;7.80;100.00;100407.22;5043913;28;20478;-72
2022/12/22 09:07:07;;;;;;;38.25;22.55;;;;;;;7.77;100.00;100418.13;5037053;28;20029;-73
2022/12/22 09:09:33;;;;;;;37.53;21.85;;;;;;;7.73;100.00;100413.94;5037722;28;20111;-73
2022/12/22 09:12:00;;;;;;;40.55;23.60;;;;;;;7.68;100.00;100409.75;5047046;28;20028;-73
2022/12/22 09:14:26;;;;;;;37.38;21.38;;;;;;;7.65;100.00;100412.63;5050078;28;20033;-72
2022/12/22 09:16:52;;;;;;;38.20;20.65;;;;;;;7.61;100.00;100413.81;5050534;28;20064;-72
2022/12/22 09:19:17;;;;;;;39.13;23.10;;;;;;;7.58;100.00;100411.34;5048690;28;20429;-72
2022/12/22 09:21:43;;;;;;;35.70;20.77;;;;;;;7.53;100.00;100421.50;5040651;28;20029;-73
2022/12/22 09:24:09;;;;;;;36.22;19.90;;;;;;;7.48;100.00;100416.47;5040804;28;20040;-73
2022/12/22 09:26:34;;;;;;;37.50;20.85;;;;;;;7.48;100.00;100434.31;5041797;28;20033;-73
2022/12/22 09:29:00;;;;;;;36.83;20.88;;;;;;;7.47;100.00;100432.63;5041190;28;20021;-73
2022/12/22 09:31:26;;;;;;;36.40;20.77;;;;;;;7.44;100.00;100439.03;5050557;28;20116;-72
2022/12/22 09:33:52;;;;;;;38.33;21.48;;;;;;;7.47;100.00;100438.81;5049809;28;20031;-73
2022/12/22 09:36:21;;;;;;;44.42;22.90;;;;;;;7.50;100.00;100438.63;5049292;28;20033;-74
2022/12/22 09:38:46;;;;;;;40.00;22.57;;;;;;;7.52;100.00;100439.34;5051514;28;20111;-73
2022/12/22 09:41:21;;;;;;;37.42;21.80;;;;;;;7.58;100.00;100450.63;5049378;28;20099;-73
2022/12/22 09:43:47;;;;;;;41.53;23.23;;;;;;;7.60;100.00;100441.53;5050769;28;20025;-74
2022/12/22 09:46:25;;;;;;;44.65;23.90;;;;;;;7.62;100.00;100458.31;5045372;28;20033;-74
2022/12/22 09:48:52;;;;;;;41.17;24.90;;;;;;;7.63;100.00;100468.06;5047605;28;20119;-74
2022/12/22 09:51:18;;;;;;;42.80;24.63;;;;;;;7.63;100.00;100462.72;5047361;28;20033;-73
2022/12/22 09:53:46;;;;;;;44.67;24.77;;;;;;;7.63;100.00;100460.03;5045957;28;20096;-73
2022/12/22 09:56:15;;;;;;;43.80;25.95;;;;;;;7.63;100.00;100464.53;5050436;28;20115;-74
2022/12/22 09:58:42;;;;;;;42.92;24.98;;;;;;;7.66;100.00;100472.38;5067917;28;20098;-73
2022/12/22 10:01:26;;;;;;;40.97;23.75;;;;;;;7.68;100.00;100473.94;5047131;28;20037;-73
2022/12/22 10:04:00;;;;;;;38.70;23.77;;;;;;;7.71;100.00;100472.88;5048431;28;20033;-73
2022/12/22 10:06:42;;;;;;;41.30;21.85;;;;;;;7.77;100.00;100475.16;5049612;28;20033;-74
2022/12/22 10:09:16;;;;;;;37.40;22.52;;;;;;;7.84;100.00;100486.31;5044533;28;20025;-71
2022/12/22 10:11:50;;;;;;;39.35;21.35;;;;;;;7.86;100.00;100482.56;5048425;28;20033;-74
2022/12/22 10:14:15;;;;;;;37.50;20.60;;;;;;;7.90;100.00;100503.75;5047934;28;20100;-71
2022/12/22 10:16:40;;;;;;;34.60;17.75;;;;;;;7.90;100.00;100496.59;5048563;28;20120;-71
2022/12/22 10:19:09;;;;;;;37.38;18.52;;;;;;;7.91;100.00;100497.47;5048306;28;20515;-74
2022/12/22 10:21:35;;;;;;;32.13;17.27;;;;;;;7.92;100.00;100494.69;5046636;28;20403;-71
2022/12/22 10:24:14;;;;;;;36.67;18.52;;;;;;;7.93;100.00;100485.66;5047520;28;20029;-72
2022/12/22 10:26:40;;;;;;;36.55;17.45;;;;;;;7.94;100.00;100478.53;5046441;28;20488;-72
2022/12/22 10:29:12;;;;;;;33.10;16.45;;;;;;;7.94;100.00;100492.75;5067451;28;20068;-71
2022/12/22 10:32:04;;;;;;;32.13;15.70;;;;;;;7.96;100.00;100493.47;5056334;28;20111;-71
2022/12/22 10:34:30;;;;;;;29.30;15.60;;;;;;;7.97;100.00;100489.84;5060196;28;20103;-73
2022/12/22 10:36:59;;;;;;;33.65;14.73;;;;;;;8.01;100.00;100490.53;5047959;28;20025;-72
2022/12/22 10:39:32;;;;;;;29.33;14.07;;;;;;;8.00;100.00;100497.66;5045147;28;20128;-72
2022/12/22 10:42:07;;;;;;;31.85;15.73;;;;;;;7.99;100.00;100498.63;5048248;28;20489;-72
2022/12/22 10:44:36;;;;;;;31.38;13.43;;;;;;;7.99;100.00;100501.28;5067710;28;20044;-72
2022/12/22 10:47:13;;;;;;;28.73;13.35;;;;;;;8.00;100.00;100500.34;5049236;28;20501;-72
2022/12/22 10:49:42;;;;;;;32.75;14.77;;;;;;;7.97;100.00;100500.56;5047395;28;20524;-74
2022/12/22 10:52:21;;;;;;;;;;;;;;;8.02;100.00;100503.78;5048536;28;20392;-73
2022/12/22 10:54:48;;;;;;;32.30;16.20;;;;;;;7.96;100.00;100511.38;5053510;28;19917;-73
2022/12/22 10:57:13;;;;;;;31.88;15.18;;;;;;;7.98;100.00;100517.47;5048203;28;20393;-72
2022/12/22 10:59:59;;;;;;;30.75;15.18;;;;;;;8.04;100.00;100511.72;5052718;28;20082;-73
2022/12/22 11:02:37;;;;;;;34.10;13.90;;;;;;;8.08;100.00;100518.56;5052307;28;20036;-72
2022/12/22 11:05:08;;;;;;;29.85;13.88;;;;;;;8.11;100.00;100522.84;5051942;28;20029;-73
2022/12/22 11:07:41;;;;;;;29.88;13.45;;;;;;;8.12;100.00;100525.41;5053142;28;20036;-72
2022/12/22 11:10:17;;;;;;;28.88;13.73;;;;;;;8.14;100.00;100520.84;5053409;28;20491;-71
2022/12/22 11:12:48;;;;;;;31.27;13.88;;;;;;;8.15;100.00;100524.34;5050378;28;20029;-72
2022/12/22 11:15:39;;;;;;;30.08;14.88;;;;;;;8.17;100.00;100523.28;5049907;28;20107;-72
2022/12/22 11:18:19;;;;;;;32.15;16.42;;;;;;;8.15;100.00;100519.00;5029248;28;20065;-72
2022/12/22 11:20:47;;;;;;;;;;;;;;;8.20;100.00;100523.09;5026721;28;20485;-73
2022/12/22 11:24:05;;;;;;;35.03;17.50;;;;;;;8.18;100.00;100519.63;5028921;28;19943;-73
2022/12/22 11:26:49;;;;;;;38.28;20.30;;;;;;;8.14;100.00;100520.84;5012620;28;20076;-76
2022/12/22 11:29:34;;;;;;;36.95;20.10;;;;;;;8.13;100.00;100526.28;5029052;28;20133;-71
2022/12/22 11:32:29;;;;;;;38.38;19.17;;;;;;;8.11;100.00;100522.84;5030114;28;20405;-74
2022/12/22 11:35:23;;;;;;;36.38;21.13;;;;;;;8.15;100.00;100532.38;5013063;28;20025;-71
2022/12/22 11:38:10;;;;;;;36.95;19.45;;;;;;;8.15;100.00;100529.72;5027574;28;20045;-72
2022/12/22 11:40:49;;;;;;;38.22;22.13;;;;;;;8.17;100.00;100538.47;5029443;28;20493;-71
2022/12/22 11:43:31;;;;;;;39.78;21.80;;;;;;;8.18;100.00;100540.19;5026917;28;20148;-71
2022/12/22 11:46:33;;;;;;;38.63;21.40;;;;;;;8.20;100.00;100540.97;5029272;28;20037;-72
2022/12/22 11:49:14;;;;;;;35.25;22.40;;;;;;;8.20;100.00;100540.97;5026646;28;20613;-74
2022/12/22 11:52:10;;;;;;;33.78;20.10;;;;;;;8.24;100.00;100539.78;5029545;28;20033;-70
2022/12/22 11:54:48;;;;;;;34.92;19.27;;;;;;;8.28;100.00;100543.97;5023610;28;20072;-70
2022/12/22 11:57:55;;;;;;;32.70;20.27;;;;;;;8.33;100.00;100539.16;5056727;28;20021;-70
2022/12/22 12:00:20;;;;;;;34.50;17.52;;;;;;;8.35;100.00;100531.03;5052757;28;20029;-72
2022/12/22 12:03:14;;;;;;;34.40;17.88;;;;;;;8.36;100.00;100520.22;5052648;28;20108;-70
2022/12/22 12:05:41;;;;;;;31.55;17.65;;;;;;;8.38;100.00;100520.94;5050246;28;20041;-71
2022/12/22 12:08:18;;;;;;;33.00;17.00;;;;;;;8.38;100.00;100523.63;5051977;28;20514;-70
2022/12/22 12:10:48;;;;;;;31.17;17.05;;;;;;;8.36;100.00;100522.88;5054910;28;20469;-71
2022/12/22 12:13:25;;;;;;;;;;;;;;;8.42;100.00;100510.00;5053905;28;20029;-70
2022/12/22 12:16:08;;;;;;;31.08;15.68;;;;;;;8.37;100.00;100507.66;5055189;28;20514;-70
2022/12/22 12:18:39;;;;;;;27.15;14.52;;;;;;;8.37;100.00;100507.66;5053385;28;20028;-70
2022/12/22 12:21:24;;;;;;;32.17;15.88;;;;;;;8.39;100.00;100495.03;5047013;28;20055;-71
2022/12/22 12:24:07;;;;;;;32.15;14.90;;;;;;;8.40;100.00;100486.91;5047527;28;20044;-71
2022/12/22 12:27:03;;;;;;;29.67;14.80;;;;;;;8.45;100.00;100489.28;5044782;28;20028;-60
2022/12/22 12:29:39;;;;;;;29.05;13.85;;;;;;;8.46;100.00;100474.91;5049899;28;20119;-72
2022/12/22 12:32:14;;;;;;;29.58;14.50;;;;;;;8.48;100.00;100483.72;5051447;28;20538;-72
2022/12/22 12:34:45;;;;;;;28.90;14.73;;;;;;;8.48;100.00;100477.50;5048438;28;20075;-72
2022/12/22 12:37:20;;;;;;;26.45;14.48;;;;;;;8.51;100.00;100479.97;5049780;28;20033;-72
2022/12/22 12:40:17;;;;;;;29.48;14.43;;;;;;;8.54;100.00;100471.72;5047306;28;20640;-72
2022/12/22 12:42:45;;;;;;;32.25;13.25;;;;;;;8.52;100.00;100478.97;5049568;28;20765;-64
2022/12/22 12:45:35;;;;;;;26.92;13.32;;;;;;;8.53;100.00;100480.69;5049454;28;20025;-72
2022/12/22 12:48:23;;;;;;;25.17;13.57;;;;;;;8.51;100.00;100480.81;5052873;28;20037;-70
2022/12/22 12:50:49;;;;;;;25.85;13.23;;;;;;;8.49;100.00;100474.72;5051528;28;20029;-71
2022/12/22 12:53:16;;;;;;;28.58;15.13;;;;;;;8.48;100.00;100475.66;5053874;28;20032;-72
2022/12/22 12:55:51;;;;;;;27.40;14.55;;;;;;;8.49;100.00;100479.19;5051064;28;20094;-72
2022/12/22 12:58:36;;;;;;;27.52;14.65;;;;;;;8.51;100.00;100472.78;5045153;28;20044;-72
2022/12/22 13:01:32;;;;;;;31.27;15.48;;;;;;;8.54;100.00;100467.19;5050473;28;20033;-72
2022/12/22 13:03:57;;;;;;;31.63;16.23;;;;;;;8.57;100.00;100468.81;5048481;28;20036;-72
2022/12/22 13:06:44;;;;;;;28.77;15.88;;;;;;;8.65;100.00;100474.47;5042735;28;20036;-73
2022/12/22 13:09:16;;;;;;;32.55;17.38;;;;;;;8.67;100.00;100477.06;5049936;28;20029;-73
2022/12/22 13:11:41;;;;;;;30.95;16.75;;;;;;;8.67;100.00;100477.91;5069943;28;20033;-71
2022/12/22 13:14:07;;;;;;;31.27;17.00;;;;;;;8.67;100.00;100477.91;5052724;28;20553;-72
2022/12/22 13:16:36;;;;;;;33.42;16.67;;;;;;;8.64;100.00;100478.13;5044124;28;20141;-73
2022/12/22 13:19:09;;;;;;;33.88;17.33;;;;;;;8.61;100.00;100481.03;5045400;28;20021;-72
2022/12/22 13:21:43;;;;;;;33.30;17.42;;;;;;;8.59;100.00;100471.38;5044875;28;20435;-75
2022/12/22 13:24:20;;;;;;;31.13;15.98;;;;;;;8.53;100.00;100469.97;5039473;28;20082;-74
2022/12/22 13:26:49;;;;;;;28.00;14.20;;;;;;;8.47;100.00;100476.63;5045925;28;20401;-73
2022/12/22 13:29:21;;;;;;;28.63;14.13;;;;;;;8.45;100.00;100481.25;5050052;28;20024;-73
2022/12/22 13:31:51;;;;;;;27.00;12.98;;;;;;;8.43;100.00;100479.59;5062173;28;20086;-74
2022/12/22 13:34:28;;;;;;;;;;;;;;;8.50;100.00;100475.56;5054360;28;20017;-74
2022/12/22 13:36:57;;;;;;;25.95;11.15;;;;;;;8.42;100.00;100461.81;5052561;28;19935;-73
2022/12/22 13:39:22;;;;;;;23.23;11.20;;;;;;;8.39;100.00;100461.06;5054519;28;20068;-74
2022/12/22 13:41:49;;;;;;;24.35;12.02;;;;;;;8.40;100.00;100459.25;5052182;28;20043;-71
2022/12/22 13:44:18;;;;;;;22.98;10.93;;;;;;;8.38;100.00;100448.63;5046189;28;20040;-74
2022/12/22 13:46:45;;;;;;;23.30;10.77;;;;;;;8.39;100.00;100441.47;5046360;28;20178;-73
2022/12/22 13:49:17;;;;;;;25.60;9.95;;;;;;;8.42;100.00;100451.09;5049764;28;20025;-73
2022/12/22 13:51:46;;;;;;;23.83;10.65;;;;;;;8.41;100.00;100447.56;5048736;28;20029;-74
2022/12/22 13:54:27;;;;;;;26.52;10.95;;;;;;;8.42;100.00;100443.06;5047429;28;20076;-73
2022/12/22 13:56:55;;;;;;;25.13;10.57;;;;;;;8.40;100.00;100432.47;5048918;28;20040;-73
2022/12/22 13:59:28;;;;;;;26.15;11.07;;;;;;;8.39;100.00;100438.81;5058336;28;20041;-75
2022/12/22 14:01:59;;;;;;;23.63;10.57;;;;;;;8.38;100.00;100437.09;5048798;28;20033;-74
2022/12/22 14:04:26;;;;;;;26.25;11.32;;;;;;;8.36;100.00;100437.19;5051545;28;20477;-72
2022/12/22 14:06:53;;;;;;;22.17;9.80;;;;;;;8.34;100.00;100425.72;5048606;28;20029;-77
2022/12/22 14:09:24;;;;;;;22.33;11.00;;;;;;;8.33;100.00;100424.03;5046045;28;20484;-78
2022/12/22 14:12:02;;;;;;;21.45;10.48;;;;;;;8.32;100.00;100435.69;5047526;28;20037;-75
2022/12/22 14:14:32;;;;;;;25.02;10.60;;;;;;;8.30;100.00;100431.41;5048363;28;20025;-74
2022/12/22 14:16:59;;;;;;;23.88;11.00;;;;;;;8.28;100.00;100423.47;5045142;28;20032;-73
2022/12/22 14:19:26;;;;;;;24.70;11.18;;;;;;;8.28;100.00;100422.63;5046240;28;20021;-74
2022/12/22 14:22:16;;;;;;;23.08;10.27;;;;;;;8.28;100.00;100410.09;5047910;28;20051;-73
2022/12/22 14:24:47;;;;;;;25.02;11.50;;;;;;;8.22;100.00;100405.19;5045766;28;20025;-73
2022/12/22 14:27:22;;;;;;;25.23;11.45;;;;;;;8.20;100.00;100407.13;5046800;28;20521;-74
2022/12/22 14:29:49;;;;;;;24.40;10.27;;;;;;;8.19;100.00;100406.25;5054238;28;20040;-74
2022/12/22 14:32:34;;;;;;;22.10;10.65;;;;;;;8.18;100.00;100390.28;5051207;28;20029;-73
2022/12/22 14:35:00;;;;;;;23.48;10.73;;;;;;;8.16;100.00;100401.13;5057957;28;20029;-73
2022/12/22 14:37:25;;;;;;;22.98;10.35;;;;;;;8.15;100.00;100393.19;5050280;28;20032;-73
2022/12/22 14:39:55;;;;;;;23.08;10.15;;;;;;;8.14;100.00;100394.16;5052368;28;20096;-73
2022/12/22 14:42:20;;;;;;;23.15;10.13;;;;;;;8.10;100.00;100381.97;5053867;28;20053;-73
2022/12/22 14:44:47;;;;;;;28.67;10.80;;;;;;;8.09;100.00;100381.09;5054939;28;20041;-73
2022/12/22 14:47:16;;;;;;;24.40;9.93;;;;;;;8.09;100.00;100377.56;5051834;28;20044;-73
2022/12/22 14:50:10;;;;;;;24.30;10.35;;;;;;;8.10;100.00;100387.31;5052895;28;20033;-73
2022/12/22 14:52:44;;;;;;;22.70;10.57;;;;;;;8.05;100.00;100375.13;5047101;28;20067;-73
2022/12/22 14:55:32;;;;;;;22.30;9.55;;;;;;;8.02;100.00;100372.66;5054307;28;20519;-73
2022/12/22 14:58:09;;;;;;;21.88;9.32;;;;;;;8.00;100.00;100371.88;5050052;28;20056;-73
2022/12/22 15:00:40;;;;;;;25.48;9.57;;;;;;;7.98;100.00;100365.81;5053673;28;20508;-73
2022/12/22 15:03:30;;;;;;;25.70;9.77;;;;;;;7.98;100.00;100356.91;5048851;28;20561;-74
2022/12/22 15:06:15;;;;;;;23.95;9.00;;;;;;;7.94;100.00;100358.94;5045042;28;20064;-74